• pl
  • eng

Awiacja
Kliknij na pogrubioną czerwoną nazwę, aby odkodować depeszę. 04:01 19.07.2018
  • WIND
  • SIGNIFICANT EURO
  • SIGNIFICANT
  • SIGMET
  • AIRMET
  • TAF FC
  • TAF FT
  • METAR GG30
  • METAR GG00


METAR EPBY 190200Z 30007KT 9999 SCT009 OVC011 19/18 Q1010 =

METAR EPGD 190200Z 29008KT 6000 NSC 18/17 Q1010 =

METAR EPKK 190200Z 29007KT 260V320 9999 BKN006 19/17 Q1010 =

METAR EPKT 190200Z 30008KT 9999 -RA OVC003 17/17 Q1011 RESHRA =

METAR EPLB 190200Z 29009KT 5000 BR BKN005 20/20 Q1006 =

METAR EPLL 190200Z 30008KT 260V320 9999 -SHRA BKN005CB OVC020 19/18
Q1010 =

METAR EPMO 190200Z 28006KT 9000 BKN008 19/18 Q1008 =

METAR EPPO 190200Z 31010KT 9999 OVC007 18/18 Q1012 R10/190095 =

METAR EPRA 190200Z NIL=

METAR EPRZ 190200Z 29006KT 9999 OVC008 20/19 Q1007 =

METAR EPSC 190200Z 31009KT 9999 -RA BKN002 OVC005 18/18 Q1013 =

METAR EPSY 190200Z NIL=

METAR EPWA 190200Z 30009KT 9999 SCT006 BKN012 20/20 Q1008 NOSIG=

METAR EPWR 190200Z 29011KT 9999 FEW037 BKN044 18/17 Q1013 =

METAR EPZG 190200Z 28005KT 250V310 CAVOK 18/16 Q1013 =
 METAR COR EPSY
Lokalizacja:
Czas::
Średnia prędkość wiatru: węzłów
Widzialność:0 metrów
Awiacja.imgw.pl jest pogodowym serwisem informacyjnym
Instytutu Meteorologii i Gospodarki Wodnej Państwowego Instytutu Badawczego.
Copyright IMGW PIB 2009-2011© Wszelkie prawa zastrzeżone.